PWSweather.com
Personal Weather Stations
Station Observations
KTXPLANO60
Highlands Of Russell Park, Plano, TX 75025

Highlands Of Russell ParkPlano, TX 75025

Lat: 33.10431671, Lon: -96.75176239

Elevation: 761

Station Type: Davis Wireless VP2 Plus

http://www.planoweather.com

High Low Average
Temperature 91.3°F32.9°C 76.5°F24.7°C 82.1°F27.8°C
Dew Point 75.1°F23.9°C 70.0°F21.1°C 72.4°F22.4°C
Winds 16.1 mph 25.9 kmh Calm Calm 7.0 mph SE11.3 kmh SE
Wind Gusts 26.5 mph42.6 kmh 2.3 mph3.7 kmh 12.0 mph19.3 kmh
Humidity 89% 56% 73%
Pressure 29.95 in1014.2 mb 29.84 in1010.5 mb -
Precipitation 0.00 in0.0 mm - -
Hour Temp Dew Point Humidity Winds Wind Gusts Pressure Precip Precip Rate Daily Precip Total
12:00 AM 80.9°F27.2°C 72.2°F22.3°C 75% 10.4 mph SE16.7 kmh SE 20.7 mph33.3 kmh 29.89 in1012.2 mb - 0.00 in0.0 mm 0.00 in0.0 mm
12:10 AM 80.9°F27.2°C 72.2°F22.3°C 75% 9.2 mph SE14.8 kmh SE 15.0 mph24.1 kmh 29.89 in1012.2 mb - 0.00 in0.0 mm 0.00 in0.0 mm
12:20 AM 80.8°F27.1°C 72.1°F22.3°C 75% 12.7 mph SE20.4 kmh SE 16.1 mph25.9 kmh 29.89 in1012.2 mb - 0.00 in0.0 mm 0.00 in0.0 mm
12:30 AM 80.6°F27.0°C 72.3°F22.4°C 76% 15.0 mph SE24.1 kmh SE 21.9 mph35.2 kmh 29.89 in1012.2 mb - 0.00 in0.0 mm 0.00 in0.0 mm
12:40 AM 80.4°F26.9°C 72.5°F22.5°C 77% 9.2 mph SE14.8 kmh SE 15.0 mph24.1 kmh 29.89 in1012.2 mb - 0.00 in0.0 mm 0.00 in0.0 mm
12:50 AM 80.2°F26.8°C 72.7°F22.6°C 78% 9.2 mph SE14.8 kmh SE 13.8 mph22.2 kmh 29.89 in1012.2 mb - 0.00 in0.0 mm 0.00 in0.0 mm
01:00 AM 79.9°F26.6°C 72.4°F22.4°C 78% 9.2 mph SE14.8 kmh SE 19.6 mph31.5 kmh 29.89 in1012.2 mb - 0.00 in0.0 mm 0.00 in0.0 mm
01:10 AM 79.7°F26.5°C 72.6°F22.6°C 79% 9.2 mph SE14.8 kmh SE 12.7 mph20.4 kmh 29.88 in1011.9 mb - 0.00 in0.0 mm 0.00 in0.0 mm
01:20 AM 79.5°F26.4°C 72.8°F22.7°C 80% 6.9 mph SE11.1 kmh SE 11.5 mph18.5 kmh 29.88 in1011.9 mb - 0.00 in0.0 mm 0.00 in0.0 mm
01:30 AM 79.3°F26.3°C 72.6°F22.6°C 80% 8.1 mph SE13.0 kmh SE 12.7 mph20.4 kmh 29.88 in1011.9 mb - 0.00 in0.0 mm 0.00 in0.0 mm
01:40 AM 79.2°F26.2°C 72.9°F22.7°C 81% 10.4 mph SE16.7 kmh SE 19.6 mph31.5 kmh 29.88 in1011.9 mb - 0.00 in0.0 mm 0.00 in0.0 mm
01:50 AM 79.1°F26.2°C 72.8°F22.7°C 81% 10.4 mph SE16.7 kmh SE 15.0 mph24.1 kmh 29.87 in1011.5 mb - 0.00 in0.0 mm 0.00 in0.0 mm
02:00 AM 79.0°F26.1°C 72.7°F22.6°C 81% 5.8 mph SE9.3 kmh SE 9.2 mph14.8 kmh 29.87 in1011.5 mb - 0.00 in0.0 mm 0.00 in0.0 mm
02:10 AM 78.9°F26.1°C 72.9°F22.7°C 82% 8.1 mph SE13.0 kmh SE 15.0 mph24.1 kmh 29.87 in1011.5 mb - 0.00 in0.0 mm 0.00 in0.0 mm
02:20 AM 78.9°F26.1°C 72.9°F22.7°C 82% 6.9 mph SE11.1 kmh SE 17.3 mph27.8 kmh 29.87 in1011.5 mb - 0.00 in0.0 mm 0.00 in0.0 mm
02:30 AM 78.7°F25.9°C 72.7°F22.6°C 82% 9.2 mph SE14.8 kmh SE 10.4 mph16.7 kmh 29.87 in1011.5 mb - 0.00 in0.0 mm 0.00 in0.0 mm
02:40 AM 78.5°F25.8°C 72.9°F22.7°C 83% 10.4 mph SE16.7 kmh SE 26.5 mph42.6 kmh 29.87 in1011.5 mb - 0.00 in0.0 mm 0.00 in0.0 mm
02:50 AM 78.4°F25.8°C 72.8°F22.7°C 83% 6.9 mph SSE11.1 kmh SSE 11.5 mph18.5 kmh 29.87 in1011.5 mb - 0.00 in0.0 mm 0.00 in0.0 mm
03:00 AM 78.3°F25.7°C 72.7°F22.6°C 83% 6.9 mph SE11.1 kmh SE 9.2 mph14.8 kmh 29.87 in1011.5 mb - 0.00 in0.0 mm 0.00 in0.0 mm
03:10 AM 78.1°F25.6°C 72.5°F22.5°C 83% 8.1 mph SE13.0 kmh SE 13.8 mph22.2 kmh 29.87 in1011.5 mb - 0.00 in0.0 mm 0.00 in0.0 mm
03:20 AM 78.0°F25.6°C 72.8°F22.7°C 84% 11.5 mph SE18.5 kmh SE 17.3 mph27.8 kmh 29.87 in1011.5 mb - 0.00 in0.0 mm 0.00 in0.0 mm
03:30 AM 77.9°F25.5°C 72.7°F22.6°C 84% 11.5 mph SE18.5 kmh SE 18.4 mph29.6 kmh 29.87 in1011.5 mb - 0.00 in0.0 mm 0.00 in0.0 mm
03:40 AM 77.7°F25.4°C 72.5°F22.5°C 84% 8.1 mph SSE13.0 kmh SSE 11.5 mph18.5 kmh 29.88 in1011.9 mb - 0.00 in0.0 mm 0.00 in0.0 mm
03:50 AM 77.7°F25.4°C 72.5°F22.5°C 84% 8.1 mph SSE13.0 kmh SSE 12.7 mph20.4 kmh 29.88 in1011.9 mb - 0.00 in0.0 mm 0.00 in0.0 mm
04:00 AM 77.6°F25.3°C 72.4°F22.4°C 84% 10.4 mph SE16.7 kmh SE 13.8 mph22.2 kmh 29.88 in1011.9 mb - 0.00 in0.0 mm 0.00 in0.0 mm
04:10 AM 77.6°F25.3°C 72.4°F22.4°C 84% 8.1 mph SE13.0 kmh SE 13.8 mph22.2 kmh 29.88 in1011.9 mb - 0.00 in0.0 mm 0.00 in0.0 mm
04:20 AM 77.5°F25.3°C 72.3°F22.4°C 84% 10.4 mph SE16.7 kmh SE 11.5 mph18.5 kmh 29.89 in1012.2 mb - 0.00 in0.0 mm 0.00 in0.0 mm
04:30 AM 77.4°F25.2°C 72.2°F22.3°C 84% 11.5 mph SE18.5 kmh SE 15.0 mph24.1 kmh 29.89 in1012.2 mb - 0.00 in0.0 mm 0.00 in0.0 mm
04:40 AM 77.3°F25.2°C 72.1°F22.3°C 84% 8.1 mph SE13.0 kmh SE 11.5 mph18.5 kmh 29.89 in1012.2 mb - 0.00 in0.0 mm 0.00 in0.0 mm
04:50 AM 77.2°F25.1°C 72.0°F22.2°C 84% 4.6 mph SE7.4 kmh SE 8.1 mph13.0 kmh 29.88 in1011.9 mb - 0.00 in0.0 mm 0.00 in0.0 mm
05:00 AM 77.2°F25.1°C 72.0°F22.2°C 84% 6.9 mph SSE11.1 kmh SSE 12.7 mph20.4 kmh 29.89 in1012.2 mb - 0.00 in0.0 mm 0.00 in0.0 mm
05:10 AM 77.2°F25.1°C 71.6°F22.0°C 83% 10.4 mph SE16.7 kmh SE 13.8 mph22.2 kmh 29.89 in1012.2 mb - 0.00 in0.0 mm 0.00 in0.0 mm
05:20 AM 77.2°F25.1°C 71.6°F22.0°C 83% 5.8 mph SE9.3 kmh SE 11.5 mph18.5 kmh 29.89 in1012.2 mb - 0.00 in0.0 mm 0.00 in0.0 mm
05:30 AM 77.1°F25.1°C 71.5°F21.9°C 83% 4.6 mph SE7.4 kmh SE 9.2 mph14.8 kmh 29.89 in1012.2 mb - 0.00 in0.0 mm 0.00 in0.0 mm
05:40 AM 77.0°F25.0°C 71.5°F21.9°C 83% 6.9 mph SE11.1 kmh SE 10.4 mph16.7 kmh 29.90 in1012.5 mb - 0.00 in0.0 mm 0.00 in0.0 mm
05:50 AM 76.9°F24.9°C 71.7°F22.1°C 84% 5.8 mph SE9.3 kmh SE 11.5 mph18.5 kmh 29.89 in1012.2 mb - 0.00 in0.0 mm 0.00 in0.0 mm
06:00 AM 76.7°F24.8°C 71.5°F21.9°C 84% 6.9 mph SSE11.1 kmh SSE 11.5 mph18.5 kmh 29.90 in1012.5 mb - 0.00 in0.0 mm 0.00 in0.0 mm
06:10 AM 76.6°F24.8°C 71.4°F21.9°C 84% 4.6 mph SSE7.4 kmh SSE 4.6 mph7.4 kmh 29.90 in1012.5 mb - 0.00 in0.0 mm 0.00 in0.0 mm
06:20 AM 76.6°F24.8°C 71.4°F21.9°C 84% 5.8 mph SE9.3 kmh SE 6.9 mph11.1 kmh 29.90 in1012.5 mb - 0.00 in0.0 mm 0.00 in0.0 mm
06:30 AM 76.5°F24.7°C 71.3°F21.8°C 84% 4.6 mph SE7.4 kmh SE 8.1 mph13.0 kmh 29.91 in1012.9 mb - 0.00 in0.0 mm 0.00 in0.0 mm
06:40 AM 76.6°F24.8°C 71.4°F21.9°C 84% 5.8 mph SE9.3 kmh SE 8.1 mph13.0 kmh 29.91 in1012.9 mb - 0.00 in0.0 mm 0.00 in0.0 mm
06:50 AM 76.6°F24.8°C 71.4°F21.9°C 84% 6.9 mph SE11.1 kmh SE 11.5 mph18.5 kmh 29.92 in1013.2 mb - 0.00 in0.0 mm 0.00 in0.0 mm
07:00 AM 76.6°F24.8°C 71.4°F21.9°C 84% 3.5 mph SE5.6 kmh SE 3.5 mph5.6 kmh 29.92 in1013.2 mb - 0.00 in0.0 mm 0.00 in0.0 mm
07:10 AM 76.6°F24.8°C 71.4°F21.9°C 84% 5.8 mph SSE9.3 kmh SSE 9.2 mph14.8 kmh 29.91 in1012.9 mb - 0.00 in0.0 mm 0.00 in0.0 mm
07:20 AM 76.6°F24.8°C 71.7°F22.1°C 85% 5.8 mph SE9.3 kmh SE 8.1 mph13.0 kmh 29.92 in1013.2 mb - 0.00 in0.0 mm 0.00 in0.0 mm
07:30 AM 76.6°F24.8°C 71.8°F22.1°C 85% 2.3 mph ESE3.7 kmh ESE 5.8 mph9.3 kmh 29.92 in1013.2 mb - 0.00 in0.0 mm 0.00 in0.0 mm
07:40 AM 76.8°F24.9°C 71.9°F22.2°C 85% 2.3 mph SE3.7 kmh SE 9.2 mph14.8 kmh 29.93 in1013.5 mb - 0.00 in0.0 mm 0.00 in0.0 mm
07:50 AM 76.9°F24.9°C 72.0°F22.2°C 85% 1.2 mph ESE1.9 kmh ESE 8.1 mph13.0 kmh 29.93 in1013.5 mb - 0.00 in0.0 mm 0.00 in0.0 mm
08:00 AM 76.9°F24.9°C 72.4°F22.4°C 86% 1.2 mph ESE1.9 kmh ESE 3.5 mph5.6 kmh 29.93 in1013.5 mb - 0.00 in0.0 mm 0.00 in0.0 mm
08:10 AM 76.7°F24.8°C 72.6°F22.6°C 87% 2.3 mph ESE3.7 kmh ESE 5.8 mph9.3 kmh 29.94 in1013.9 mb - 0.00 in0.0 mm 0.00 in0.0 mm
08:20 AM 76.6°F24.8°C 72.4°F22.4°C 87% 2.3 mph ESE3.7 kmh ESE 3.5 mph5.6 kmh 29.94 in1013.9 mb - 0.00 in0.0 mm 0.00 in0.0 mm
08:30 AM 76.5°F24.7°C 72.7°F22.6°C 88% 6.9 mph SE11.1 kmh SE 8.1 mph13.0 kmh 29.94 in1013.9 mb - 0.00 in0.0 mm 0.00 in0.0 mm
08:40 AM 76.6°F24.8°C 72.8°F22.7°C 88% 3.5 mph SE5.6 kmh SE 9.2 mph14.8 kmh 29.95 in1014.2 mb - 0.00 in0.0 mm 0.00 in0.0 mm
08:50 AM 76.9°F24.9°C 73.4°F23.0°C 89% 3.5 mph ESE5.6 kmh ESE 5.8 mph9.3 kmh 29.95 in1014.2 mb - 0.00 in0.0 mm 0.00 in0.0 mm
09:00 AM 77.1°F25.1°C 73.6°F23.1°C 89% 2.3 mph SE3.7 kmh SE 2.3 mph3.7 kmh 29.94 in1013.9 mb - 0.00 in0.0 mm 0.00 in0.0 mm
09:10 AM 77.4°F25.2°C 73.6°F23.1°C 88% Calm Calm 2.3 mph3.7 kmh 29.94 in1013.9 mb - 0.00 in0.0 mm 0.00 in0.0 mm
09:20 AM 77.7°F25.4°C 73.5°F23.1°C 87% 3.5 mph SE5.6 kmh SE 8.1 mph13.0 kmh 29.94 in1013.9 mb - 0.00 in0.0 mm 0.00 in0.0 mm
09:30 AM 78.3°F25.7°C 73.7°F23.2°C 86% 5.8 mph ESE9.3 kmh ESE 11.5 mph18.5 kmh 29.94 in1013.9 mb - 0.00 in0.0 mm 0.00 in0.0 mm
09:40 AM 78.5°F25.8°C 73.6°F23.1°C 85% 1.2 mph SE1.9 kmh SE 5.8 mph9.3 kmh 29.95 in1014.2 mb - 0.00 in0.0 mm 0.00 in0.0 mm
09:50 AM 78.3°F25.7°C 73.7°F23.2°C 86% 3.5 mph SE5.6 kmh SE 6.9 mph11.1 kmh 29.94 in1013.9 mb - 0.00 in0.0 mm 0.00 in0.0 mm
10:00 AM 78.2°F25.7°C 74.0°F23.3°C 87% 4.6 mph SE7.4 kmh SE 8.1 mph13.0 kmh 29.95 in1014.2 mb - 0.00 in0.0 mm 0.00 in0.0 mm
10:10 AM 78.3°F25.7°C 74.1°F23.4°C 87% 4.6 mph SE7.4 kmh SE 9.2 mph14.8 kmh 29.95 in1014.2 mb - 0.00 in0.0 mm 0.00 in0.0 mm
10:20 AM 78.5°F25.8°C 74.3°F23.5°C 87% 3.5 mph SE5.6 kmh SE 8.1 mph13.0 kmh 29.95 in1014.2 mb - 0.00 in0.0 mm 0.00 in0.0 mm
10:30 AM 79.6°F26.4°C 74.7°F23.7°C 85% 2.3 mph ESE3.7 kmh ESE 6.9 mph11.1 kmh 29.94 in1013.9 mb - 0.00 in0.0 mm 0.00 in0.0 mm
10:40 AM 80.3°F26.8°C 75.1°F23.9°C 84% 5.8 mph SE9.3 kmh SE 11.5 mph18.5 kmh 29.95 in1014.2 mb - 0.00 in0.0 mm 0.00 in0.0 mm
10:50 AM 82.4°F28.0°C 74.9°F23.8°C 78% 3.5 mph SE5.6 kmh SE 6.9 mph11.1 kmh 29.95 in1014.2 mb - 0.00 in0.0 mm 0.00 in0.0 mm
11:00 AM 83.4°F28.6°C 74.7°F23.7°C 75% 3.5 mph SE5.6 kmh SE 8.1 mph13.0 kmh 29.94 in1013.9 mb - 0.00 in0.0 mm 0.00 in0.0 mm
11:10 AM 83.8°F28.8°C 74.2°F23.4°C 73% 6.9 mph SE11.1 kmh SE 12.7 mph20.4 kmh 29.95 in1014.2 mb - 0.00 in0.0 mm 0.00 in0.0 mm
11:20 AM 83.9°F28.8°C 74.3°F23.5°C 73% 4.6 mph SE7.4 kmh SE 4.6 mph7.4 kmh 29.95 in1014.2 mb - 0.00 in0.0 mm 0.00 in0.0 mm
11:30 AM 84.0°F28.9°C 73.5°F23.1°C 71% 5.8 mph SE9.3 kmh SE 6.9 mph11.1 kmh 29.95 in1014.2 mb - 0.00 in0.0 mm 0.00 in0.0 mm
11:40 AM 84.3°F29.1°C 73.9°F23.3°C 71% 8.1 mph ESE13.0 kmh ESE 11.5 mph18.5 kmh 29.95 in1014.2 mb - 0.00 in0.0 mm 0.00 in0.0 mm
11:50 AM 84.5°F29.2°C 73.2°F22.9°C 69% 6.9 mph SE11.1 kmh SE 10.4 mph16.7 kmh 29.95 in1014.2 mb - 0.00 in0.0 mm 0.00 in0.0 mm
12:00 PM 84.5°F29.2°C 73.6°F23.1°C 70% 4.6 mph SE7.4 kmh SE 15.0 mph24.1 kmh 29.94 in1013.9 mb - 0.00 in0.0 mm 0.00 in0.0 mm
12:10 PM 84.8°F29.3°C 74.3°F23.5°C 71% 3.5 mph ESE5.6 kmh ESE 18.4 mph29.6 kmh 29.94 in1013.9 mb - 0.00 in0.0 mm 0.00 in0.0 mm
12:20 PM 86.0°F30.0°C 73.8°F23.2°C 67% 11.5 mph SE18.5 kmh SE 17.3 mph27.8 kmh 29.94 in1013.9 mb - 0.00 in0.0 mm 0.00 in0.0 mm
12:30 PM 85.6°F29.8°C 74.3°F23.5°C 69% 10.4 mph SE16.7 kmh SE 17.3 mph27.8 kmh 29.94 in1013.9 mb - 0.00 in0.0 mm 0.00 in0.0 mm
12:40 PM 84.8°F29.3°C 72.6°F22.6°C 67% 9.2 mph ESE14.8 kmh ESE 12.7 mph20.4 kmh 29.94 in1013.9 mb - 0.00 in0.0 mm 0.00 in0.0 mm
12:50 PM 85.6°F29.8°C 72.9°F22.7°C 66% 6.9 mph SE11.1 kmh SE 11.5 mph18.5 kmh 29.94 in1013.9 mb - 0.00 in0.0 mm 0.00 in0.0 mm
01:00 PM 86.4°F30.2°C 73.7°F23.2°C 66% 8.1 mph SE13.0 kmh SE 11.5 mph18.5 kmh 29.93 in1013.5 mb - 0.00 in0.0 mm 0.00 in0.0 mm
01:10 PM 86.8°F30.4°C 73.1°F22.8°C 64% 9.2 mph SE14.8 kmh SE 13.8 mph22.2 kmh 29.93 in1013.5 mb - 0.00 in0.0 mm 0.00 in0.0 mm
01:20 PM 86.5°F30.3°C 73.8°F23.2°C 66% 5.8 mph SE9.3 kmh SE 11.5 mph18.5 kmh 29.93 in1013.5 mb - 0.00 in0.0 mm 0.00 in0.0 mm
01:30 PM 87.0°F30.6°C 73.3°F22.9°C 64% 5.8 mph SE9.3 kmh SE 13.8 mph22.2 kmh 29.93 in1013.5 mb - 0.00 in0.0 mm 0.00 in0.0 mm
01:40 PM 86.8°F30.4°C 73.2°F22.9°C 64% 5.8 mph SE9.3 kmh SE 12.7 mph20.4 kmh 29.92 in1013.2 mb - 0.00 in0.0 mm 0.00 in0.0 mm
01:50 PM 87.4°F30.8°C 73.3°F22.9°C 63% 6.9 mph SE11.1 kmh SE 13.8 mph22.2 kmh 29.92 in1013.2 mb - 0.00 in0.0 mm 0.00 in0.0 mm
02:00 PM 87.2°F30.7°C 73.1°F22.8°C 63% 6.9 mph ESE11.1 kmh ESE 11.5 mph18.5 kmh 29.91 in1012.9 mb - 0.00 in0.0 mm 0.00 in0.0 mm
02:10 PM 87.2°F30.7°C 74.4°F23.6°C 66% 3.5 mph SE5.6 kmh SE 6.9 mph11.1 kmh 29.91 in1012.9 mb - 0.00 in0.0 mm 0.00 in0.0 mm
02:20 PM 87.3°F30.7°C 73.6°F23.1°C 64% 9.2 mph ESE14.8 kmh ESE 13.8 mph22.2 kmh 29.91 in1012.9 mb - 0.00 in0.0 mm 0.00 in0.0 mm
02:30 PM 86.5°F30.3°C 73.8°F23.2°C 66% 1.2 mph E1.9 kmh E 4.6 mph7.4 kmh 29.91 in1012.9 mb - 0.00 in0.0 mm 0.00 in0.0 mm
02:40 PM 87.0°F30.6°C 73.8°F23.2°C 65% 10.4 mph SE16.7 kmh SE 19.6 mph31.5 kmh 29.90 in1012.5 mb - 0.00 in0.0 mm 0.00 in0.0 mm
02:50 PM 87.8°F31.0°C 73.6°F23.1°C 63% 5.8 mph SE9.3 kmh SE 9.2 mph14.8 kmh 29.89 in1012.2 mb - 0.00 in0.0 mm 0.00 in0.0 mm
03:00 PM 89.2°F31.8°C 74.0°F23.3°C 61% 8.1 mph SSE13.0 kmh SSE 13.8 mph22.2 kmh 29.89 in1012.2 mb - 0.00 in0.0 mm 0.00 in0.0 mm
03:10 PM 89.5°F31.9°C 73.3°F22.9°C 59% 8.1 mph SE13.0 kmh SE 13.8 mph22.2 kmh 29.89 in1012.2 mb - 0.00 in0.0 mm 0.00 in0.0 mm
03:20 PM 89.5°F31.9°C 73.2°F22.9°C 59% 9.2 mph SE14.8 kmh SE 12.7 mph20.4 kmh 29.89 in1012.2 mb - 0.00 in0.0 mm 0.00 in0.0 mm
03:30 PM 89.9°F32.2°C 73.1°F22.8°C 58% 6.9 mph E11.1 kmh E 10.4 mph16.7 kmh 29.88 in1011.9 mb - 0.00 in0.0 mm 0.00 in0.0 mm
03:40 PM 90.2°F32.3°C 73.4°F23.0°C 58% 8.1 mph E13.0 kmh E 16.1 mph25.9 kmh 29.88 in1011.9 mb - 0.00 in0.0 mm 0.00 in0.0 mm
03:50 PM 91.3°F32.9°C 73.9°F23.3°C 57% 2.3 mph SE3.7 kmh SE 11.5 mph18.5 kmh 29.87 in1011.5 mb - 0.00 in0.0 mm 0.00 in0.0 mm
04:00 PM 90.6°F32.6°C 73.3°F22.9°C 57% 5.8 mph E9.3 kmh E 12.7 mph20.4 kmh 29.88 in1011.9 mb - 0.00 in0.0 mm 0.00 in0.0 mm
04:10 PM 89.8°F32.1°C 72.6°F22.6°C 57% 11.5 mph E18.5 kmh E 19.6 mph31.5 kmh 29.88 in1011.9 mb - 0.00 in0.0 mm 0.00 in0.0 mm
04:20 PM 89.0°F31.7°C 72.3°F22.4°C 58% 12.7 mph ESE20.4 kmh ESE 19.6 mph31.5 kmh 29.87 in1011.5 mb - 0.00 in0.0 mm 0.00 in0.0 mm
04:30 PM 89.4°F31.9°C 73.2°F22.9°C 59% 8.1 mph SE13.0 kmh SE 11.5 mph18.5 kmh 29.87 in1011.5 mb - 0.00 in0.0 mm 0.00 in0.0 mm
04:40 PM 89.6°F32.0°C 72.9°F22.7°C 58% 6.9 mph ESE11.1 kmh ESE 11.5 mph18.5 kmh 29.87 in1011.5 mb - 0.00 in0.0 mm 0.00 in0.0 mm
04:50 PM 90.0°F32.2°C 73.7°F23.2°C 59% 4.6 mph E7.4 kmh E 9.2 mph14.8 kmh 29.87 in1011.5 mb - 0.00 in0.0 mm 0.00 in0.0 mm
05:00 PM 89.6°F32.0°C 72.8°F22.7°C 58% 8.1 mph SE13.0 kmh SE 11.5 mph18.5 kmh 29.86 in1011.2 mb - 0.00 in0.0 mm 0.00 in0.0 mm
05:10 PM 89.2°F31.8°C 72.5°F22.5°C 58% 8.1 mph SE13.0 kmh SE 10.4 mph16.7 kmh 29.86 in1011.2 mb - 0.00 in0.0 mm 0.00 in0.0 mm
05:20 PM 89.2°F31.8°C 73.0°F22.8°C 59% 8.1 mph ESE13.0 kmh ESE 15.0 mph24.1 kmh 29.86 in1011.2 mb - 0.00 in0.0 mm 0.00 in0.0 mm
05:30 PM 89.7°F32.1°C 71.9°F22.2°C 56% 8.1 mph SE13.0 kmh SE 12.7 mph20.4 kmh 29.86 in1011.2 mb - 0.00 in0.0 mm 0.00 in0.0 mm
05:40 PM 89.9°F32.2°C 73.1°F22.8°C 58% 3.5 mph ESE5.6 kmh ESE 4.6 mph7.4 kmh 29.85 in1010.8 mb - 0.00 in0.0 mm 0.00 in0.0 mm
05:50 PM 90.1°F32.3°C 72.8°F22.7°C 57% 11.5 mph E18.5 kmh E 15.0 mph24.1 kmh 29.84 in1010.5 mb - 0.00 in0.0 mm 0.00 in0.0 mm
06:00 PM 89.8°F32.1°C 73.1°F22.8°C 58% 9.2 mph SE14.8 kmh SE 17.3 mph27.8 kmh 29.84 in1010.5 mb - 0.00 in0.0 mm 0.00 in0.0 mm
06:10 PM 89.7°F32.1°C 72.4°F22.4°C 57% 10.4 mph SE16.7 kmh SE 16.1 mph25.9 kmh 29.84 in1010.5 mb - 0.00 in0.0 mm 0.00 in0.0 mm
06:20 PM 88.9°F31.6°C 72.7°F22.6°C 59% 4.6 mph E7.4 kmh E 11.5 mph18.5 kmh 29.84 in1010.5 mb - 0.00 in0.0 mm 0.00 in0.0 mm
06:30 PM 89.0°F31.7°C 71.8°F22.1°C 57% 10.4 mph E16.7 kmh E 15.0 mph24.1 kmh 29.84 in1010.5 mb - 0.00 in0.0 mm 0.00 in0.0 mm
06:40 PM 88.5°F31.4°C 71.8°F22.1°C 58% 8.1 mph E13.0 kmh E 20.7 mph33.3 kmh 29.84 in1010.5 mb - 0.00 in0.0 mm 0.00 in0.0 mm
06:50 PM 88.2°F31.2°C 71.6°F22.0°C 58% 9.2 mph ESE14.8 kmh ESE 12.7 mph20.4 kmh 29.85 in1010.8 mb - 0.00 in0.0 mm 0.00 in0.0 mm
07:00 PM 88.2°F31.2°C 71.6°F22.0°C 58% 11.5 mph E18.5 kmh E 17.3 mph27.8 kmh 29.85 in1010.8 mb - 0.00 in0.0 mm 0.00 in0.0 mm
07:10 PM 88.2°F31.2°C 72.0°F22.2°C 59% 4.6 mph ESE7.4 kmh ESE 12.7 mph20.4 kmh 29.85 in1010.8 mb - 0.00 in0.0 mm 0.00 in0.0 mm
07:20 PM 88.1°F31.2°C 72.5°F22.5°C 60% 6.9 mph E11.1 kmh E 13.8 mph22.2 kmh 29.84 in1010.5 mb - 0.00 in0.0 mm 0.00 in0.0 mm
07:30 PM 88.0°F31.1°C 71.9°F22.2°C 59% 16.1 mph SE25.9 kmh SE 25.3 mph40.7 kmh 29.85 in1010.8 mb - 0.00 in0.0 mm 0.00 in0.0 mm
07:40 PM 87.1°F30.6°C 71.0°F21.7°C 59% 11.5 mph SE18.5 kmh SE 17.3 mph27.8 kmh 29.85 in1010.8 mb - 0.00 in0.0 mm 0.00 in0.0 mm
07:50 PM 86.4°F30.2°C 71.4°F21.9°C 61% 13.8 mph SE22.2 kmh SE 19.6 mph31.5 kmh 29.84 in1010.5 mb - 0.00 in0.0 mm 0.00 in0.0 mm
08:00 PM 86.0°F30.0°C 71.9°F22.2°C 63% 9.2 mph SE14.8 kmh SE 16.1 mph25.9 kmh 29.85 in1010.8 mb - 0.00 in0.0 mm 0.00 in0.0 mm
08:10 PM 85.4°F29.7°C 71.8°F22.1°C 64% 9.2 mph SE14.8 kmh SE 13.8 mph22.2 kmh 29.85 in1010.8 mb - 0.00 in0.0 mm 0.00 in0.0 mm
08:20 PM 84.6°F29.2°C 71.1°F21.7°C 64% 9.2 mph SE14.8 kmh SE 18.4 mph29.6 kmh 29.85 in1010.8 mb - 0.00 in0.0 mm 0.00 in0.0 mm
08:30 PM 84.0°F28.9°C 70.9°F21.6°C 65% 9.2 mph ESE14.8 kmh ESE 16.1 mph25.9 kmh 29.86 in1011.2 mb - 0.00 in0.0 mm 0.00 in0.0 mm
08:40 PM 83.4°F28.6°C 70.8°F21.6°C 66% 11.5 mph SE18.5 kmh SE 13.8 mph22.2 kmh 29.87 in1011.5 mb - 0.00 in0.0 mm 0.00 in0.0 mm
08:50 PM 83.0°F28.3°C 70.9°F21.6°C 67% 8.1 mph SE13.0 kmh SE 13.8 mph22.2 kmh 29.87 in1011.5 mb - 0.00 in0.0 mm 0.00 in0.0 mm
09:00 PM 82.8°F28.2°C 71.2°F21.8°C 68% 6.9 mph SE11.1 kmh SE 15.0 mph24.1 kmh 29.87 in1011.5 mb - 0.00 in0.0 mm 0.00 in0.0 mm
09:10 PM 82.4°F28.0°C 70.8°F21.6°C 68% 10.4 mph SE16.7 kmh SE 16.1 mph25.9 kmh 29.88 in1011.9 mb - 0.00 in0.0 mm 0.00 in0.0 mm
09:20 PM 82.0°F27.8°C 70.8°F21.6°C 69% 11.5 mph SE18.5 kmh SE 18.4 mph29.6 kmh 29.88 in1011.9 mb - 0.00 in0.0 mm 0.00 in0.0 mm
09:30 PM 81.5°F27.5°C 70.8°F21.6°C 70% 13.8 mph SE22.2 kmh SE 19.6 mph31.5 kmh 29.88 in1011.9 mb - 0.00 in0.0 mm 0.00 in0.0 mm
09:40 PM 81.2°F27.3°C 70.9°F21.6°C 71% 13.8 mph SE22.2 kmh SE 19.6 mph31.5 kmh 29.89 in1012.2 mb - 0.00 in0.0 mm 0.00 in0.0 mm
09:50 PM 81.0°F27.2°C 71.1°F21.7°C 72% 9.2 mph SE14.8 kmh SE 16.1 mph25.9 kmh 29.89 in1012.2 mb - 0.00 in0.0 mm 0.00 in0.0 mm
10:00 PM 80.8°F27.1°C 71.3°F21.8°C 73% 9.2 mph SE14.8 kmh SE 18.4 mph29.6 kmh 29.89 in1012.2 mb - 0.00 in0.0 mm 0.00 in0.0 mm
10:10 PM 80.6°F27.0°C 71.1°F21.7°C 73% 6.9 mph SE11.1 kmh SE 12.7 mph20.4 kmh 29.89 in1012.2 mb - 0.00 in0.0 mm 0.00 in0.0 mm
10:20 PM 80.3°F26.8°C 71.3°F21.8°C 74% 3.5 mph SE5.6 kmh SE 11.5 mph18.5 kmh 29.89 in1012.2 mb - 0.00 in0.0 mm 0.00 in0.0 mm
10:30 PM 80.2°F26.8°C 71.2°F21.8°C 74% 8.1 mph SE13.0 kmh SE 19.6 mph31.5 kmh 29.89 in1012.2 mb - 0.00 in0.0 mm 0.00 in0.0 mm
10:40 PM 80.0°F26.7°C 71.4°F21.9°C 75% 4.6 mph SE7.4 kmh SE 11.5 mph18.5 kmh 29.89 in1012.2 mb - 0.00 in0.0 mm 0.00 in0.0 mm
10:50 PM 79.8°F26.6°C 71.2°F21.8°C 75% 8.1 mph SE13.0 kmh SE 15.0 mph24.1 kmh 29.89 in1012.2 mb - 0.00 in0.0 mm 0.00 in0.0 mm
11:00 PM 79.6°F26.4°C 71.0°F21.7°C 75% 8.1 mph SE13.0 kmh SE 11.5 mph18.5 kmh 29.89 in1012.2 mb - 0.00 in0.0 mm 0.00 in0.0 mm
11:10 PM 79.4°F26.3°C 70.8°F21.6°C 75% 6.9 mph SE11.1 kmh SE 11.5 mph18.5 kmh 29.90 in1012.5 mb - 0.00 in0.0 mm 0.00 in0.0 mm
11:20 PM 79.2°F26.2°C 70.6°F21.4°C 75% 5.8 mph SE9.3 kmh SE 11.5 mph18.5 kmh 29.91 in1012.9 mb - 0.00 in0.0 mm 0.00 in0.0 mm
11:30 PM 79.0°F26.1°C 70.4°F21.3°C 75% 5.8 mph SE9.3 kmh SE 8.1 mph13.0 kmh 29.91 in1012.9 mb - 0.00 in0.0 mm 0.00 in0.0 mm
11:40 PM 78.9°F26.1°C 70.3°F21.3°C 75% 10.4 mph SE16.7 kmh SE 20.7 mph33.3 kmh 29.91 in1012.9 mb - 0.00 in0.0 mm 0.00 in0.0 mm
11:50 PM 78.9°F26.1°C 70.3°F21.3°C 75% 9.2 mph SE14.8 kmh SE 15.0 mph24.1 kmh 29.90 in1012.5 mb - 0.00 in0.0 mm 0.00 in0.0 mm